Terminal Aerodrome Forecast
Issued by NWS Charleston, WV

Current Version | Previous Version | Graphics & Text | Print | Product List | Glossary On
Versions: 1 2 3 4 5 6 7 8 9 10 11 12 13 14 15 16 17 18 19 20 21 22
782
FTUS41 KRLX 201739
TAFCRW
TAF
KCRW 201739Z 2018/2118 27008G16KT P6SM SCT060
     FM210000 23003KT P6SM FEW060
     FM210200 00000KT P6SM SCT250
     FM211000 00000KT 5SM BR FEW001
     FM211300 25007KT P6SM SCT110=

USA.gov is the U.S. government's official web portal to all federal, state and local government web resources and services.